Time;durP1;ratioP1;P1;durP2;ratioP2;P2;SDS_P1;SDS_P2;PMS_P1;PMS_P2;Temp;Humidity;BMP_temperature;BMP_pressure;BME280_temperature;BME280_humidity;BME280_pressure;Samples;Min_cycle;Max_cycle;Signal;HPM_P1;HPM_P2
2022/05/19 00:01:58;;;;;;;15.73;12.63;;;15.30;99.90;;;;;;5017957;28;20044;-61
2022/05/19 00:04:24;;;;;;;17.75;12.55;;;15.30;99.90;;;;;;5019018;28;20392;-63
2022/05/19 00:06:50;;;;;;;17.90;12.18;;;15.30;99.90;;;;;;5017227;28;20454;-61
2022/05/19 00:09:16;;;;;;;18.30;12.00;;;15.60;99.90;;;;;;5018584;28;20050;-62
2022/05/19 00:11:43;;;;;;;16.23;11.32;;;15.40;99.90;;;;;;5000046;28;20053;-62
2022/05/19 00:14:09;;;;;;;18.83;12.32;;;15.20;99.90;;;;;;5018120;28;20054;-61
2022/05/19 00:16:35;;;;;;;16.73;12.52;;;15.50;99.90;;;;;;5017576;28;20112;-62
2022/05/19 00:19:01;;;;;;;20.90;12.27;;;15.30;99.90;;;;;;5017574;28;20488;-62
2022/05/19 00:21:27;;;;;;;17.67;10.65;;;15.30;99.90;;;;;;5017168;28;20053;-61
2022/05/19 00:23:52;;;;;;;15.95;10.55;;;15.10;99.90;;;;;;5017406;28;20098;-63
2022/05/19 00:26:18;;;;;;;16.58;11.57;;;15.20;99.90;;;;;;5000891;28;20056;-62
2022/05/19 00:28:43;;;;;;;16.65;10.68;;;15.20;99.90;;;;;;5001213;28;20045;-61
2022/05/19 00:31:09;;;;;;;15.40;12.15;;;14.90;99.90;;;;;;4984310;28;20046;-62
2022/05/19 00:33:35;;;;;;;17.58;11.82;;;15.10;99.90;;;;;;5015422;28;20095;-62
2022/05/19 00:36:16;;;;;;;16.20;10.88;;;15.30;99.90;;;;;;5016297;28;20168;-61
2022/05/19 00:38:42;;;;;;;16.55;12.02;;;15.20;99.90;;;;;;4999332;28;20041;-63
2022/05/19 00:41:09;;;;;;;20.02;14.77;;;15.30;99.90;;;;;;5017004;28;20041;-62
2022/05/19 00:43:40;;;;;;;15.93;12.57;;;15.40;99.90;;;;;;5000880;28;20042;-61
2022/05/19 00:46:21;;;;;;;20.15;13.30;;;15.30;99.90;;;;;;5015160;28;20049;-61
2022/05/19 00:49:01;;;;;;;17.23;11.95;;;15.10;99.90;;;;;;4999335;28;20049;-63
2022/05/19 00:51:55;;;;;;;22.92;13.88;;;14.80;99.90;;;;;;5016456;28;20049;-60
2022/05/19 00:54:29;;;;;;;19.05;13.10;;;15.10;99.90;;;;;;4998427;28;20061;-62
2022/05/19 00:57:00;;;;;;;18.10;14.35;;;14.70;99.90;;;;;;5000868;28;20049;-61
2022/05/19 00:59:36;;;;;;;22.95;14.07;;;14.80;99.90;;;;;;5001226;28;20048;-65
2022/05/19 01:02:06;;;;;;;26.80;16.35;;;15.00;99.90;;;;;;5000549;28;20038;-61
2022/05/19 01:04:37;;;;;;;24.55;15.73;;;15.10;99.90;;;;;;5016368;28;20396;-60
2022/05/19 01:07:09;;;;;;;24.70;15.52;;;15.00;99.90;;;;;;4999192;28;20038;-61
2022/05/19 01:09:37;;;;;;;18.55;15.27;;;14.90;99.90;;;;;;5016120;28;20384;-64
2022/05/19 01:12:04;;;;;;;18.92;14.63;;;14.80;99.90;;;;;;5016244;28;20515;-62
2022/05/19 01:14:30;;;;;;;22.15;16.15;;;15.10;99.90;;;;;;5014846;28;20062;-62
2022/05/19 01:16:56;;;;;;;21.60;14.43;;;;;;;;;;5017727;28;20057;-61
2022/05/19 01:19:45;;;;;;;24.42;16.65;;;15.20;99.90;;;;;;5017948;28;20492;-61
2022/05/19 01:22:40;;;;;;;23.65;15.95;;;15.30;99.90;;;;;;5015563;28;20042;-62
2022/05/19 01:25:27;;;;;;;21.00;16.00;;;15.20;99.90;;;;;;4960537;28;20042;-62
2022/05/19 01:27:53;;;;;;;27.15;17.52;;;;;;;;;;5016897;28;20097;-61
2022/05/19 01:30:19;;;;;;;21.92;14.93;;;15.50;99.90;;;;;;5016295;28;20069;-61
2022/05/19 01:32:45;;;;;;;20.42;14.75;;;;;;;;;;4999719;28;20053;-62
2022/05/19 01:35:11;;;;;;;24.05;15.43;;;15.30;99.90;;;;;;4998655;28;20503;-62
2022/05/19 01:37:36;;;;;;;19.98;14.65;;;15.00;99.90;;;;;;5017099;28;20400;-61
2022/05/19 01:40:21;;;;;;;20.17;15.15;;;15.20;99.90;;;;;;5016050;28;20042;-61
2022/05/19 01:42:56;;;;;;;26.33;15.75;;;16.40;99.90;;;;;;4999169;28;20439;-62
2022/05/19 01:45:44;;;;;;;24.75;17.83;;;15.10;99.90;;;;;;4982737;28;20076;-62
2022/05/19 01:48:34;;;;;;;23.13;17.33;;;15.10;99.90;;;;;;4999255;28;20046;-62
2022/05/19 01:51:00;;;;;;;23.85;17.23;;;;;;;;;;5015736;28;20120;-62
2022/05/19 01:53:32;;;;;;;28.73;19.83;;;15.00;99.90;;;;;;5015872;28;20544;-63
2022/05/19 01:56:30;;;;;;;25.55;19.63;;;15.00;99.90;;;;;;5014889;28;20056;-62
2022/05/19 01:59:08;;;;;;;26.77;19.85;;;14.90;99.90;;;;;;4956333;28;20115;-61
2022/05/19 02:01:34;;;;;;;24.33;18.75;;;14.90;99.90;;;;;;5016423;28;20069;-62
2022/05/19 02:04:17;;;;;;;30.90;20.48;;;15.00;99.90;;;;;;5015142;28;20046;-62
2022/05/19 02:06:49;;;;;;;26.17;20.13;;;15.10;99.90;;;;;;5015651;28;20087;-61
2022/05/19 02:09:48;;;;;;;32.17;21.42;;;15.00;99.90;;;;;;5015419;28;20041;-62
2022/05/19 02:12:14;;;;;;;38.42;22.88;;;14.90;99.90;;;;;;4988055;28;20128;-62
2022/05/19 02:14:46;;;;;;;36.83;23.42;;;14.90;99.90;;;;;;4991460;28;20081;-61
2022/05/19 02:17:15;;;;;;;36.28;24.92;;;15.20;99.90;;;;;;4955786;29;20055;-63
2022/05/19 02:19:44;;;;;;;32.00;23.67;;;15.00;99.90;;;;;;4958720;28;20035;-61
2022/05/19 02:22:14;;;;;;;39.90;25.23;;;15.20;99.90;;;;;;4957474;29;20043;-62
2022/05/19 02:24:46;;;;;;;35.75;24.73;;;15.10;99.90;;;;;;4957197;28;20160;-62
2022/05/19 02:27:32;;;;;;;36.15;25.48;;;15.20;99.90;;;;;;4972766;28;20099;-62
2022/05/19 02:30:01;;;;;;;39.33;25.63;;;15.10;99.90;;;;;;4972558;28;20085;-62
2022/05/19 02:32:27;;;;;;;44.97;29.10;;;15.20;99.90;;;;;;4958081;28;20086;-61
2022/05/19 02:34:53;;;;;;;41.22;28.15;;;15.20;99.90;;;;;;4957330;28;20046;-62
2022/05/19 02:37:19;;;;;;;40.10;28.52;;;15.20;99.90;;;;;;4939862;29;20047;-62
2022/05/19 02:39:44;;;;;;;41.22;29.38;;;15.20;99.90;;;;;;4957655;28;20047;-62
2022/05/19 02:42:10;;;;;;;43.72;28.55;;;15.20;99.90;;;;;;4957992;28;20118;-61
2022/05/19 02:44:35;;;;;;;46.10;30.58;;;15.40;99.90;;;;;;4976442;28;20401;-62
2022/05/19 02:47:01;;;;;;;46.63;30.80;;;15.30;99.90;;;;;;4978015;28;20043;-61
2022/05/19 02:49:27;;;;;;;46.50;30.25;;;15.30;99.90;;;;;;4995366;28;20085;-61
2022/05/19 02:51:52;;;;;;;42.58;29.08;;;15.50;99.90;;;;;;4981033;28;20046;-64
2022/05/19 02:54:21;;;;;;;40.78;28.98;;;15.60;99.90;;;;;;4980525;28;20043;-61
2022/05/19 02:56:48;;;;;;;43.47;29.15;;;15.40;99.90;;;;;;4995838;28;20066;-61
2022/05/19 02:59:13;;;;;;;45.03;30.20;;;15.60;99.90;;;;;;4995320;28;20051;-62
2022/05/19 03:01:39;;;;;;;41.60;29.83;;;15.40;99.90;;;;;;4995459;28;20042;-62
2022/05/19 03:04:05;;;;;;;38.33;28.17;;;15.40;99.90;;;;;;4995945;28;20489;-62
2022/05/19 03:06:30;;;;;;;43.45;28.75;;;15.40;99.90;;;;;;4995599;28;20038;-62
2022/05/19 03:08:56;;;;;;;43.95;30.58;;;15.30;99.90;;;;;;4980935;28;20041;-62
2022/05/19 03:11:21;;;;;;;48.72;31.88;;;15.40;99.90;;;;;;4981404;28;20134;-62
2022/05/19 03:13:47;;;;;;;49.30;32.00;;;15.60;99.90;;;;;;4948868;28;20416;-62
2022/05/19 03:16:13;;;;;;;47.00;31.52;;;15.20;99.90;;;;;;5020036;28;20092;-61
2022/05/19 03:18:38;;;;;;;53.78;35.25;;;15.30;99.90;;;;;;5018243;28;20038;-62
2022/05/19 03:21:04;;;;;;;50.58;33.92;;;15.30;99.90;;;;;;4984873;28;20056;-63
2022/05/19 03:23:29;;;;;;;49.15;33.97;;;15.30;99.90;;;;;;5018935;28;20042;-62
2022/05/19 03:25:55;;;;;;;53.13;35.92;;;15.20;99.90;;;;;;5018143;28;20084;-62
2022/05/19 03:28:21;;;;;;;49.78;34.80;;;15.20;99.90;;;;;;5017897;28;20049;-62
2022/05/19 03:30:46;;;;;;;53.10;36.58;;;15.50;99.90;;;;;;5018571;28;20035;-62
2022/05/19 03:33:12;;;;;;;60.10;38.40;;;15.50;99.90;;;;;;5019051;28;20124;-62
2022/05/19 03:35:38;;;;;;;57.25;38.45;;;15.70;99.90;;;;;;5020072;28;20053;-63
2022/05/19 03:38:04;;;;;;;54.47;37.53;;;15.70;99.90;;;;;;5017829;28;20050;-61
2022/05/19 03:40:29;;;;;;;56.95;36.15;;;17.10;99.90;;;;;;5018479;28;20045;-61
2022/05/19 03:42:55;;;;;;;57.08;39.17;;;15.50;99.90;;;;;;5019073;28;20069;-62
2022/05/19 03:45:20;;;;;;;60.75;37.33;;;15.80;99.90;;;;;;5001729;28;20060;-62
2022/05/19 03:47:46;;;;;;;60.05;38.45;;;15.90;99.90;;;;;;4985511;28;20472;-62
2022/05/19 03:50:12;;;;;;;61.33;41.30;;;16.20;99.90;;;;;;5019227;28;20053;-63
2022/05/19 03:52:40;;;;;;;57.67;40.08;;;15.90;99.90;;;;;;5018769;28;20471;-62
2022/05/19 03:55:09;;;;;;;62.83;42.60;;;16.20;99.90;;;;;;5017474;28;20046;-63
2022/05/19 03:57:35;;;;;;;61.13;43.03;;;16.40;99.90;;;;;;5018170;28;20046;-62
2022/05/19 04:00:01;;;;;;;66.18;44.60;;;16.10;99.90;;;;;;5018990;28;20053;-62
2022/05/19 04:02:27;;;;;;;69.22;43.75;;;16.10;99.90;;;;;;5019353;28;20034;-63
2022/05/19 04:04:52;;;;;;;63.80;43.78;;;16.10;99.90;;;;;;5019284;28;20037;-64
2022/05/19 04:07:18;;;;;;;65.60;45.78;;;16.00;99.90;;;;;;5017938;28;20045;-62
2022/05/19 04:09:43;;;;;;;65.97;44.47;;;16.10;99.90;;;;;;5001467;28;20046;-63
2022/05/19 04:12:09;;;;;;;67.78;45.70;;;16.00;99.90;;;;;;5017845;28;20053;-62
2022/05/19 04:14:36;;;;;;;65.03;44.10;;;16.10;99.90;;;;;;5000853;28;20074;-62
2022/05/19 04:17:01;;;;;;;68.78;45.65;;;16.10;99.90;;;;;;5000408;28;20060;-63
2022/05/19 04:19:27;;;;;;;66.68;45.13;;;16.40;99.90;;;;;;5016416;28;20514;-63
2022/05/19 04:21:53;;;;;;;66.10;45.88;;;16.20;99.90;;;;;;4980108;28;20551;-62
2022/05/19 04:24:18;;;;;;;65.63;44.47;;;16.10;99.90;;;;;;5010011;28;20091;-63
2022/05/19 04:26:44;;;;;;;67.55;45.92;;;16.30;99.90;;;;;;5013784;28;20381;-63
2022/05/19 04:29:09;;;;;;;73.63;43.45;;;16.30;99.90;;;;;;5012325;28;20451;-63
2022/05/19 04:31:36;;;;;;;64.47;45.92;;;16.40;99.90;;;;;;4996068;28;20038;-63
2022/05/19 04:34:04;;;;;;;66.82;44.53;;;16.40;99.90;;;;;;4972285;28;20046;-63
2022/05/19 04:36:30;;;;;;;62.10;44.78;;;16.50;99.90;;;;;;4989787;28;20503;-63
2022/05/19 04:38:55;;;;;;;56.88;39.67;;;16.50;99.90;;;;;;4988911;28;20104;-63
2022/05/19 04:41:21;;;;;;;57.97;39.10;;;;;;;;;;4982950;28;20046;-63
2022/05/19 04:43:47;;;;;;;57.10;40.80;;;16.70;99.90;;;;;;5008118;28;20050;-63
2022/05/19 04:46:12;;;;;;;54.95;41.15;;;16.80;99.90;;;;;;4991544;28;20056;-64
2022/05/19 04:48:38;;;;;;;60.13;39.58;;;16.80;99.90;;;;;;5007829;28;20061;-63
2022/05/19 04:51:04;;;;;;;53.20;39.40;;;16.90;99.90;;;;;;5009511;28;20041;-63
2022/05/19 04:53:30;;;;;;;49.95;36.30;;;;;;;;;;4991674;28;20082;-63
2022/05/19 04:55:56;;;;;;;58.60;38.47;;;17.10;99.90;;;;;;5009529;28;20507;-63
2022/05/19 04:58:22;;;;;;;62.65;37.50;;;17.00;99.90;;;;;;5008035;28;20052;-63
2022/05/19 05:00:49;;;;;;;54.92;38.90;;;17.00;99.90;;;;;;4998975;28;20496;-63
2022/05/19 05:03:15;;;;;;;49.40;35.75;;;17.00;99.90;;;;;;4977445;28;20046;-63
2022/05/19 05:05:40;;;;;;;54.25;38.60;;;17.10;99.90;;;;;;4971185;28;20045;-63
2022/05/19 05:08:06;;;;;;;45.92;33.28;;;17.00;99.90;;;;;;4973558;28;20050;-64
2022/05/19 05:10:31;;;;;;;48.90;33.40;;;18.10;99.90;;;;;;4997804;28;20042;-62
2022/05/19 05:13:04;;;;;;;45.03;32.17;;;17.40;99.90;;;;;;4990189;28;20056;-63
2022/05/19 05:15:30;;;;;;;47.13;32.88;;;17.40;99.90;;;;;;4972457;28;20108;-63
2022/05/19 05:17:55;;;;;;;41.20;29.05;;;17.40;99.90;;;;;;4972565;28;20452;-63
2022/05/19 05:20:21;;;;;;;36.05;26.60;;;17.50;99.90;;;;;;4990513;28;20038;-61
2022/05/19 05:22:47;;;;;;;38.67;27.05;;;17.60;99.90;;;;;;4992635;28;20127;-63
2022/05/19 05:25:15;;;;;;;39.05;28.48;;;17.60;99.90;;;;;;4989934;28;20050;-63
2022/05/19 05:27:41;;;;;;;35.10;24.60;;;17.70;99.90;;;;;;4986095;28;20136;-63
2022/05/19 05:30:07;;;;;;;33.22;24.05;;;17.80;99.90;;;;;;4988994;28;20124;-62
2022/05/19 05:32:34;;;;;;;34.35;23.83;;;17.60;99.90;;;;;;4988215;28;20041;-63
2022/05/19 05:34:59;;;;;;;32.38;22.90;;;17.40;99.90;;;;;;4996979;28;20046;-62
2022/05/19 05:37:25;;;;;;;35.38;23.65;;;17.60;99.90;;;;;;5006298;28;20040;-63
2022/05/19 05:39:51;;;;;;;31.17;23.40;;;17.60;99.90;;;;;;4989870;28;20492;-62
2022/05/19 05:42:16;;;;;;;30.38;21.17;;;17.70;99.90;;;;;;5007295;28;20499;-64
2022/05/19 05:44:42;;;;;;;30.38;20.80;;;17.80;99.90;;;;;;5007004;28;20115;-61
2022/05/19 05:47:08;;;;;;;26.45;20.17;;;17.50;99.90;;;;;;5006511;28;20576;-62
2022/05/19 05:49:33;;;;;;;28.98;20.02;;;17.70;99.90;;;;;;5005114;28;20042;-62
2022/05/19 05:51:59;;;;;;;26.25;18.88;;;17.90;99.90;;;;;;5006228;28;20127;-63
2022/05/19 05:54:24;;;;;;;27.83;18.17;;;17.90;99.90;;;;;;5008817;28;20507;-63
2022/05/19 05:56:52;;;;;;;22.10;15.90;;;17.80;99.90;;;;;;5011320;28;20488;-63
2022/05/19 05:59:18;;;;;;;20.88;14.48;;;17.80;99.90;;;;;;5008582;28;20247;-62
2022/05/19 06:01:43;;;;;;;19.77;14.77;;;17.80;99.90;;;;;;5010297;28;20096;-63
2022/05/19 06:04:09;;;;;;;15.88;12.73;;;18.10;99.90;;;;;;5012776;28;20073;-63
2022/05/19 06:06:34;;;;;;;18.50;13.35;;;17.80;99.90;;;;;;5013291;28;20041;-63
2022/05/19 06:09:00;;;;;;;22.08;13.43;;;18.10;99.90;;;;;;5013138;28;20041;-63
2022/05/19 06:11:26;;;;;;;18.00;12.38;;;17.90;99.90;;;;;;5012912;28;20052;-63
2022/05/19 06:13:52;;;;;;;18.67;12.52;;;17.90;99.90;;;;;;5012425;28;20125;-63
2022/05/19 06:16:18;;;;;;;20.88;12.18;;;17.90;99.90;;;;;;5012271;28;20037;-63
2022/05/19 06:18:43;;;;;;;18.48;12.18;;;18.00;99.90;;;;;;5004902;28;20093;-63
2022/05/19 06:21:09;;;;;;;21.17;13.00;;;18.20;99.90;;;;;;4993346;28;20050;-63
2022/05/19 06:23:35;;;;;;;18.48;12.90;;;18.00;99.90;;;;;;4991885;28;20515;-64
2022/05/19 06:26:02;;;;;;;37.55;15.35;;;18.20;99.90;;;;;;4975717;28;20042;-62
2022/05/19 06:28:28;;;;;;;25.83;17.70;;;18.20;99.90;;;;;;4993008;28;20508;-62
2022/05/19 06:30:54;;;;;;;29.73;20.38;;;18.00;99.90;;;;;;5003049;28;20061;-62
2022/05/19 06:33:22;;;;;;;35.20;21.23;;;18.10;99.90;;;;;;4995708;28;20041;-62
2022/05/19 06:35:48;;;;;;;35.15;22.58;;;18.00;99.90;;;;;;4996435;28;20042;-62
2022/05/19 06:38:14;;;;;;;30.73;22.92;;;18.00;99.90;;;;;;5002498;28;20034;-62
2022/05/19 06:40:41;;;;;;;31.63;23.20;;;17.90;99.90;;;;;;4993413;28;20472;-63
2022/05/19 06:43:14;;;;;;;32.40;22.40;;;17.90;99.90;;;;;;4997211;28;20038;-62
2022/05/19 06:45:40;;;;;;;30.23;21.73;;;18.10;99.90;;;;;;4995862;28;20043;-62
2022/05/19 06:48:06;;;;;;;35.58;24.15;;;17.90;99.90;;;;;;4991631;28;20038;-62
2022/05/19 06:50:33;;;;;;;30.23;22.67;;;17.80;99.90;;;;;;4998751;28;20488;-63
2022/05/19 06:53:03;;;;;;;30.35;21.10;;;18.00;99.90;;;;;;5012313;28;20048;-62
2022/05/19 06:55:31;;;;;;;40.47;24.83;;;18.00;99.90;;;;;;4994600;28;20125;-62
2022/05/19 06:57:56;;;;;;;29.60;22.05;;;18.00;99.90;;;;;;4994724;28;20045;-63
2022/05/19 07:00:24;;;;;;;28.80;20.80;;;18.10;99.90;;;;;;5012645;28;20175;-62
2022/05/19 07:02:53;;;;;;;29.00;18.80;;;18.20;99.90;;;;;;5012362;28;20041;-62
2022/05/19 07:05:21;;;;;;;26.17;17.88;;;18.10;99.90;;;;;;5012402;28;20050;-63
2022/05/19 07:07:47;;;;;;;22.65;16.80;;;18.30;99.90;;;;;;5012345;28;20085;-63
2022/05/19 07:10:18;;;;;;;22.50;15.70;;;18.40;99.90;;;;;;5012220;28;20041;-62
2022/05/19 07:12:44;;;;;;;21.65;15.35;;;17.90;99.90;;;;;;5012428;28;20038;-63
2022/05/19 07:15:11;;;;;;;22.27;16.38;;;18.20;99.90;;;;;;5012102;28;20062;-62
2022/05/19 07:17:37;;;;;;;28.95;17.70;;;18.20;99.90;;;;;;5012559;28;20050;-63
2022/05/19 07:22:49;;;;;;;23.85;17.33;;;18.10;99.90;;;;;;5012269;28;20046;-62
2022/05/19 07:25:15;;;;;;;26.52;17.25;;;18.30;99.90;;;;;;5012360;28;20048;-62
2022/05/19 07:27:41;;;;;;;26.08;18.30;;;18.20;99.90;;;;;;5012096;28;20109;-62
2022/05/19 07:30:07;;;;;;;20.60;16.35;;;18.10;99.90;;;;;;5015634;28;20556;-63
2022/05/19 07:32:33;;;;;;;22.77;16.45;;;18.20;99.90;;;;;;5015862;28;20038;-62
2022/05/19 07:34:59;;;;;;;31.05;17.52;;;18.20;99.90;;;;;;5015847;28;20044;-62
2022/05/19 07:37:25;;;;;;;24.67;17.02;;;18.00;99.90;;;;;;5015743;28;20049;-62
2022/05/19 07:39:54;;;;;;;22.75;16.50;;;18.30;99.90;;;;;;5015648;28;20080;-62
2022/05/19 07:42:20;;;;;;;25.48;17.20;;;18.20;99.90;;;;;;5015538;28;20037;-62
2022/05/19 07:44:46;;;;;;;23.35;16.70;;;18.40;99.90;;;;;;4998498;28;20041;-63
2022/05/19 07:47:12;;;;;;;27.48;18.13;;;18.40;99.90;;;;;;5015440;28;20037;-62
2022/05/19 07:49:38;;;;;;;20.48;16.77;;;18.20;99.90;;;;;;5015455;28;20049;-62
2022/05/19 07:52:04;;;;;;;25.70;19.88;;;18.60;99.90;;;;;;5014160;28;20396;-62
2022/05/19 07:54:32;;;;;;;27.95;19.77;;;18.70;99.90;;;;;;5015464;28;20411;-63
2022/05/19 07:56:58;;;;;;;27.30;20.17;;;18.50;99.90;;;;;;5015291;28;20054;-62
2022/05/19 07:59:24;;;;;;;25.30;19.00;;;18.50;99.90;;;;;;5014121;28;20116;-63
2022/05/19 08:01:51;;;;;;;25.23;18.33;;;18.50;99.90;;;;;;5015447;28;20607;-62
2022/05/19 08:04:17;;;;;;;27.90;19.17;;;18.70;99.90;;;;;;5015375;28;20037;-63
2022/05/19 08:06:43;;;;;;;24.65;18.73;;;18.50;99.90;;;;;;4997498;28;20045;-62
2022/05/19 08:11:54;;;;;;;22.95;17.55;;;18.50;99.90;;;;;;5014950;28;20426;-62
2022/05/19 08:17:07;;;;;;;24.73;18.13;;;18.60;99.90;;;;;;5014966;28;20081;-62
2022/05/19 08:19:33;;;;;;;24.35;17.77;;;18.90;99.90;;;;;;5014968;28;20041;-63
2022/05/19 08:21:59;;;;;;;24.90;18.05;;;18.60;99.90;;;;;;4981260;28;20121;-63
2022/05/19 08:24:25;;;;;;;23.83;17.10;;;18.80;99.90;;;;;;5014735;28;20133;-62
2022/05/19 08:26:52;;;;;;;21.85;15.95;;;18.90;99.90;;;;;;5015145;28;20097;-62
2022/05/19 08:29:19;;;;;;;20.35;15.57;;;18.90;99.90;;;;;;5014804;28;20041;-62
2022/05/19 08:31:45;;;;;;;24.23;16.17;;;19.00;99.90;;;;;;5014746;28;20045;-62
2022/05/19 08:34:11;;;;;;;26.30;18.80;;;19.00;99.90;;;;;;5014671;28;20384;-62
2022/05/19 08:36:37;;;;;;;27.27;19.77;;;18.90;99.90;;;;;;4996978;28;20104;-62
2022/05/19 08:39:03;;;;;;;24.10;19.13;;;19.10;99.90;;;;;;4996866;28;20412;-62
2022/05/19 08:41:43;;;;;;;27.45;19.33;;;19.30;99.90;;;;;;5012440;28;20042;-62
2022/05/19 08:44:28;;;;;;;23.70;18.42;;;19.40;99.90;;;;;;5014399;28;20045;-62
2022/05/19 08:46:57;;;;;;;24.92;18.73;;;19.10;99.90;;;;;;5000343;28;20124;-63
2022/05/19 08:49:53;;;;;;;24.98;18.77;;;19.40;99.90;;;;;;5014532;28;20042;-63
2022/05/19 08:52:22;;;;;;;26.92;19.00;;;19.40;99.90;;;;;;5014020;28;20381;-62
2022/05/19 08:54:50;;;;;;;27.00;19.50;;;19.60;99.90;;;;;;5015008;28;20118;-62
2022/05/19 08:57:39;;;;;;;24.05;18.00;;;19.70;99.90;;;;;;4976809;28;20050;-63
2022/05/19 09:00:14;;;;;;;22.55;17.80;;;19.70;99.90;;;;;;4994344;28;20516;-63
2022/05/19 09:02:45;;;;;;;25.27;19.42;;;19.60;99.90;;;;;;4994130;28;20034;-63
2022/05/19 09:05:29;;;;;;;22.15;14.70;;;19.60;99.90;;;;;;4976888;28;20035;-63
2022/05/19 09:08:14;;;;;;;23.95;16.17;;;19.90;99.90;;;;;;4976997;28;20169;-64
2022/05/19 09:10:45;;;;;;;22.95;14.63;;;19.80;99.90;;;;;;4977211;28;20050;-64
2022/05/19 09:13:23;;;;;;;18.88;14.48;;;20.00;99.90;;;;;;4993867;28;20147;-64
2022/05/19 09:15:49;;;;;;;20.38;15.13;;;20.10;99.90;;;;;;4993316;28;20054;-64
2022/05/19 09:18:19;;;;;;;17.05;11.35;;;20.10;99.90;;;;;;4994470;28;20049;-63
2022/05/19 09:20:51;;;;;;;15.73;10.73;;;20.50;99.90;;;;;;4976560;28;20497;-63
2022/05/19 09:23:17;;;;;;;17.13;14.55;;;20.40;99.90;;;;;;4976620;28;20046;-63
2022/05/19 09:25:50;;;;;;;18.63;12.13;;;20.70;99.90;;;;;;4994003;28;20509;-63
2022/05/19 09:28:17;;;;;;;20.27;13.50;;;20.50;99.90;;;;;;5005607;28;20484;-63
2022/05/19 09:30:55;;;;;;;17.00;12.18;;;20.50;99.90;;;;;;4994798;28;20049;-64
2022/05/19 09:33:31;;;;;;;20.40;12.05;;;20.60;99.90;;;;;;4994834;28;20381;-63
2022/05/19 09:35:59;;;;;;;21.13;12.77;;;20.60;99.90;;;;;;5006386;28;20562;-64
2022/05/19 09:38:36;;;;;;;17.98;12.27;;;20.70;99.90;;;;;;4982646;28;20168;-63
2022/05/19 09:41:05;;;;;;;13.55;10.75;;;20.80;99.90;;;;;;4988955;28;20438;-63
2022/05/19 09:43:36;;;;;;;13.85;8.52;;;20.90;99.90;;;;;;4978263;28;20047;-63
2022/05/19 09:46:14;;;;;;;14.55;9.85;;;20.80;99.90;;;;;;4987333;28;20540;-63
2022/05/19 09:48:48;;;;;;;10.52;7.57;;;20.60;99.90;;;;;;5003150;28;20488;-63
2022/05/19 09:51:19;;;;;;;8.52;6.13;;;21.00;99.90;;;;;;4998270;28;20504;-63
2022/05/19 09:53:54;;;;;;;10.43;6.97;;;21.20;99.90;;;;;;4992380;28;20088;-64
2022/05/19 09:56:22;;;;;;;11.68;7.78;;;21.40;99.90;;;;;;4992302;28;20049;-63
2022/05/19 09:58:52;;;;;;;11.00;5.90;;;21.30;99.90;;;;;;4976960;28;20056;-64
2022/05/19 10:01:28;;;;;;;7.68;5.00;;;21.20;99.90;;;;;;4990448;28;20046;-65
2022/05/19 10:03:58;;;;;;;9.27;6.72;;;21.50;99.90;;;;;;4988439;28;20485;-64
2022/05/19 10:06:34;;;;;;;13.00;8.45;;;21.50;99.90;;;;;;5006108;28;20033;-62
2022/05/19 10:09:09;;;;;;;12.27;7.97;;;24.10;99.90;;;;;;5011025;28;20050;-64
2022/05/19 10:11:34;;;;;;;;;;;22.00;99.90;;;;;;4994324;28;20121;-65
2022/05/19 10:14:03;;;;;;;6.75;5.55;;;21.70;99.90;;;;;;5009607;28;20359;-65
2022/05/19 10:16:32;;;;;;;7.70;4.80;;;21.80;99.90;;;;;;5009151;28;20511;-64
2022/05/19 10:19:03;;;;;;;9.43;5.47;;;22.20;99.90;;;;;;5017255;28;20596;-64
2022/05/19 10:21:37;;;;;;;6.20;4.03;;;22.10;99.90;;;;;;5013455;28;20358;-64
2022/05/19 10:24:23;;;;;;;6.47;2.75;;;22.00;99.90;;;;;;5029842;28;20049;-64
2022/05/19 10:33:16;;;;;;;9.07;4.40;;;22.10;99.90;;;;;;5031148;28;20049;-64
2022/05/19 10:36:02;;;;;;;9.30;4.18;;;22.10;99.90;;;;;;5013593;28;20049;-64
2022/05/19 10:39:01;;;;;;;6.18;3.97;;;22.10;99.90;;;;;;5031349;28;20203;-64
2022/05/19 10:41:39;;;;;;;5.00;3.55;;;22.10;99.90;;;;;;5013392;28;20045;-64
2022/05/19 10:44:37;;;;;;;6.53;3.78;;;22.10;99.90;;;;;;5013692;28;20045;-64
2022/05/19 10:47:28;;;;;;;7.38;4.55;;;22.00;99.90;;;;;;4945110;28;20053;-64
2022/05/19 10:50:25;;;;;;;8.05;5.78;;;21.90;99.90;;;;;;5009346;28;20080;-65
2022/05/19 10:53:12;;;;;;;10.18;7.10;;;22.30;99.90;;;;;;5011126;28;20305;-64
2022/05/19 10:55:41;;;;;;;11.85;6.95;;;22.20;99.90;;;;;;5018737;28;20483;-64
2022/05/19 10:58:27;;;;;;;11.05;6.75;;;22.40;99.90;;;;;;5013458;28;20115;-64
2022/05/19 11:01:04;;;;;;;12.88;7.78;;;22.40;99.90;;;;;;5030350;28;20060;-65
2022/05/19 11:03:48;;;;;;;13.50;7.65;;;22.60;99.90;;;;;;5032169;28;20041;-64
2022/05/19 11:06:42;;;;;;;9.40;7.45;;;22.60;99.90;;;;;;5017035;28;20051;-64
2022/05/19 11:09:15;;;;;;;8.00;5.38;;;22.70;99.90;;;;;;5017133;28;20052;-64
2022/05/19 11:12:08;;;;;;;8.82;5.95;;;23.00;99.90;;;;;;5017047;28;20053;-64
2022/05/19 11:15:02;;;;;;;11.07;7.13;;;23.10;99.90;;;;;;5016846;28;20137;-64
2022/05/19 11:17:56;;;;;;;9.93;6.15;;;23.00;99.90;;;;;;5024888;28;20049;-64
2022/05/19 11:20:27;;;;;;;7.35;5.85;;;23.20;99.90;;;;;;5014960;28;20042;-64
2022/05/19 11:23:00;;;;;;;12.27;7.30;;;23.20;99.90;;;;;;5015059;28;20046;-65
2022/05/19 11:28:38;;;;;;;6.80;3.47;;;23.50;99.90;;;;;;5003933;28;20042;-64
2022/05/19 11:31:24;;;;;;;6.85;3.72;;;23.60;99.90;;;;;;5001155;28;20041;-64
2022/05/19 11:33:54;;;;;;;7.85;3.30;;;23.70;99.90;;;;;;5014909;28;20113;-64
2022/05/19 11:36:36;;;;;;;10.43;5.45;;;24.00;99.90;;;;;;4996705;28;20095;-64
2022/05/19 11:39:11;;;;;;;8.57;5.43;;;23.90;99.90;;;;;;5013924;28;20074;-64
2022/05/19 11:41:37;;;;;;;9.48;6.07;;;24.00;99.90;;;;;;5014311;28;20034;-64
2022/05/19 11:44:20;;;;;;;7.35;5.00;;;24.10;99.90;;;;;;5014524;28;20045;-63
2022/05/19 11:47:06;;;;;;;8.82;6.38;;;23.80;99.90;;;;;;5014533;28;20165;-64
2022/05/19 11:55:39;;;;;;;8.82;4.95;;;23.80;99.90;;;;;;5019634;28;20433;-63
2022/05/19 11:58:28;;;;;;;9.75;6.07;;;23.90;99.90;;;;;;5034083;28;20042;-63
2022/05/19 12:01:18;;;;;;;10.63;5.32;;;24.20;99.90;;;;;;5016070;28;20495;-64
2022/05/19 12:04:02;;;;;;;9.48;5.70;;;23.70;99.90;;;;;;5015908;28;20076;-63
2022/05/19 12:06:35;;;;;;;12.38;5.88;;;23.80;99.90;;;;;;4996479;28;20061;-66
2022/05/19 12:09:21;;;;;;;12.18;5.53;;;23.80;99.90;;;;;;5011549;28;20049;-66
2022/05/19 12:11:48;;;;;;;13.30;4.65;;;23.50;99.90;;;;;;5010963;28;20448;-66
2022/05/19 12:14:34;;;;;;;7.30;3.47;;;23.70;99.90;;;;;;5010190;28;20567;-66
2022/05/19 12:17:00;;;;;;;4.78;3.40;;;23.50;99.90;;;;;;5011715;28;20081;-66
2022/05/19 12:19:35;;;;;;;6.95;3.85;;;23.30;99.90;;;;;;5012655;28;20119;-66
2022/05/19 12:22:01;;;;;;;;;;;23.30;99.90;;;;;;5011575;28;20488;-66
2022/05/19 12:24:50;;;;;;;3.85;2.03;;;23.60;99.90;;;;;;4995015;28;19929;-65
2022/05/19 12:27:23;;;;;;;5.25;2.15;;;25.10;99.90;;;;;;5011554;28;20050;-65
2022/05/19 12:29:59;;;;;;;4.80;2.38;;;23.20;99.90;;;;;;5012859;28;20527;-65
2022/05/19 12:32:36;;;;;;;4.75;2.20;;;22.90;99.90;;;;;;4978605;28;20418;-65
2022/05/19 12:35:10;;;;;;;5.80;2.85;;;23.10;99.90;;;;;;5012454;28;20403;-65
2022/05/19 12:37:43;;;;;;;7.60;3.15;;;23.10;99.90;;;;;;5012172;28;20045;-65
2022/05/19 12:40:39;;;;;;;6.47;2.85;;;22.80;99.90;;;;;;4994102;28;20042;-65
2022/05/19 12:43:15;;;;;;;6.25;3.13;;;22.60;99.90;;;;;;4994809;28;20492;-65
2022/05/19 12:46:12;;;;;;;8.90;3.85;;;22.50;99.90;;;;;;4994204;28;20042;-65
2022/05/19 12:48:37;;;;;;;14.52;3.90;;;22.50;99.90;;;;;;4974725;28;20058;-65
2022/05/19 12:51:06;;;;;;;12.25;4.88;;;22.40;99.90;;;;;;5007699;28;20125;-67
2022/05/19 12:53:49;;;;;;;7.97;3.78;;;22.50;99.90;;;;;;5006645;28;20332;-65
2022/05/19 12:56:49;;;;;;;6.75;4.22;;;22.00;99.90;;;;;;5006769;28;20077;-65
2022/05/19 12:59:35;;;;;;;7.45;4.75;;;21.70;99.90;;;;;;4999176;28;20050;-66
2022/05/19 13:02:08;;;;;;;16.30;5.60;;;21.60;99.90;;;;;;4997523;28;20048;-64
2022/05/19 13:04:50;;;;;;;10.52;5.25;;;21.20;99.90;;;;;;5000506;28;20449;-65
2022/05/19 13:07:48;;;;;;;11.20;5.30;;;21.20;99.90;;;;;;4996962;28;20053;-64
2022/05/19 13:10:24;;;;;;;10.10;5.72;;;20.80;99.90;;;;;;4944847;28;20061;-65
2022/05/19 13:13:09;;;;;;;10.18;5.63;;;20.60;99.90;;;;;;4980713;28;20037;-65
2022/05/19 13:15:49;;;;;;;10.75;6.13;;;20.50;99.90;;;;;;4999353;28;20251;-64
2022/05/19 13:18:18;;;;;;;11.50;5.90;;;20.20;99.90;;;;;;4997339;28;20045;-65